Time;durP1;ratioP1;P1;durP2;ratioP2;P2;SDS_P1;SDS_P2;PMS_P1;PMS_P2;Temp;Humidity;BMP_temperature;BMP_pressure;BME280_temperature;BME280_humidity;BME280_pressure;Samples;Min_cycle;Max_cycle;Signal;HPM_P1;HPM_P2
2022/10/25 00:00:44;;;;;;;10.20;2.30;;;11.90;99.90;;;;;;4985968;28;20858;-80
2022/10/25 00:03:12;;;;;;;8.10;2.50;;;11.80;99.90;;;;;;4963590;28;20227;-80
2022/10/25 00:05:40;;;;;;;8.73;2.37;;;11.80;99.90;;;;;;4965766;28;20236;-80
2022/10/25 00:08:08;;;;;;;6.43;2.37;;;11.70;99.90;;;;;;4982681;28;20219;-80
2022/10/25 00:10:36;;;;;;;8.33;1.87;;;11.70;99.90;;;;;;4968537;28;20326;-81
2022/10/25 00:13:02;;;;;;;6.87;2.27;;;11.70;99.90;;;;;;4961650;28;20320;-80
2022/10/25 00:15:29;;;;;;;8.77;2.20;;;11.60;99.90;;;;;;4973806;28;20227;-80
2022/10/25 00:17:56;;;;;;;10.20;2.47;;;11.50;99.90;;;;;;4965539;28;20219;-80
2022/10/25 00:20:24;;;;;;;8.57;2.10;;;11.50;99.90;;;;;;4968651;28;20223;-80
2022/10/25 00:22:51;;;;;;;8.67;1.93;;;11.50;99.90;;;;;;4982995;28;20314;-80
2022/10/25 00:25:17;;;;;;;5.50;2.10;;;11.40;99.90;;;;;;4963547;28;21114;-79
2022/10/25 00:27:44;;;;;;;8.43;2.27;;;11.40;99.90;;;;;;4967619;28;20321;-78
2022/10/25 00:30:12;;;;;;;11.60;2.77;;;11.30;99.90;;;;;;4975027;28;20230;-80
2022/10/25 00:32:39;;;;;;;9.60;2.67;;;11.30;99.90;;;;;;4964844;28;20340;-79
2022/10/25 00:35:06;;;;;;;8.03;2.87;;;11.30;99.90;;;;;;4985959;28;20246;-80
2022/10/25 00:37:35;;;;;;;7.70;3.40;;;11.20;99.90;;;;;;4963969;28;20313;-80
2022/10/25 00:40:02;;;;;;;9.63;2.93;;;11.20;99.90;;;;;;4979097;28;20257;-80
2022/10/25 00:42:28;;;;;;;7.23;2.80;;;11.10;99.90;;;;;;4965322;28;20230;-80
2022/10/25 00:44:57;;;;;;;6.90;2.80;;;11.10;99.90;;;;;;4969181;28;20360;-80
2022/10/25 00:47:37;;;;;;;11.50;3.37;;;11.10;99.90;;;;;;4966155;28;20241;-80
2022/10/25 00:50:22;;;;;;;8.03;2.80;;;11.10;99.90;;;;;;4969231;28;20318;-80
2022/10/25 00:52:56;;;;;;;10.33;3.30;;;11.00;99.90;;;;;;4968017;28;20216;-79
2022/10/25 00:55:25;;;;;;;7.23;2.90;;;11.00;99.90;;;;;;4963204;28;20576;-78
2022/10/25 00:57:59;;;;;;;12.27;3.20;;;11.00;99.90;;;;;;4970510;28;20672;-80
2022/10/25 01:00:25;;;;;;;13.13;3.10;;;10.90;99.90;;;;;;4958355;28;20228;-80
2022/10/25 01:02:53;;;;;;;6.97;2.30;;;10.90;99.90;;;;;;4966937;28;20322;-80
2022/10/25 01:05:20;;;;;;;6.70;2.93;;;10.90;99.90;;;;;;4973346;28;20222;-79
2022/10/25 01:07:47;;;;;;;10.57;3.47;;;10.90;99.90;;;;;;4978144;28;20236;-79
2022/10/25 01:10:15;;;;;;;12.00;3.00;;;10.80;99.90;;;;;;4968560;28;20532;-79
2022/10/25 01:12:42;;;;;;;7.33;3.27;;;10.80;99.90;;;;;;4962468;28;20234;-79
2022/10/25 01:15:10;;;;;;;8.07;3.03;;;10.80;99.90;;;;;;4966045;28;20272;-79
2022/10/25 01:17:45;;;;;;;10.13;3.40;;;10.80;99.90;;;;;;4981910;28;20641;-79
2022/10/25 01:20:36;;;;;;;13.43;3.00;;;10.80;99.90;;;;;;4986971;28;20538;-79
2022/10/25 01:23:17;;;;;;;5.97;3.20;;;10.70;99.90;;;;;;4981613;28;20759;-78
2022/10/25 01:26:14;;;;;;;11.90;4.20;;;10.70;99.90;;;;;;4969841;28;20235;-79
2022/10/25 01:28:54;;;;;;;10.00;3.50;;;10.70;99.90;;;;;;4981877;28;20249;-78
2022/10/25 01:31:29;;;;;;;11.00;3.80;;;10.80;99.90;;;;;;4966871;28;21251;-81
2022/10/25 01:34:01;;;;;;;10.90;3.70;;;10.80;99.90;;;;;;4980726;28;20234;-81
2022/10/25 01:36:36;;;;;;;8.67;3.53;;;10.80;99.90;;;;;;4974411;28;20227;-80
2022/10/25 01:39:09;;;;;;;10.00;3.17;;;10.90;99.90;;;;;;4972632;28;20250;-80
2022/10/25 01:41:48;;;;;;;11.80;3.60;;;10.90;99.90;;;;;;4980268;28;20967;-80
2022/10/25 01:44:30;;;;;;;11.33;3.97;;;10.90;99.90;;;;;;4983382;28;20571;-81
2022/10/25 01:47:02;;;;;;;7.27;2.77;;;11.00;99.90;;;;;;4969368;28;20687;-80
2022/10/25 01:49:37;;;;;;;11.80;3.40;;;11.00;99.90;;;;;;4973902;28;20237;-80
2022/10/25 01:52:04;;;;;;;7.47;3.10;;;11.10;99.90;;;;;;4979472;28;20238;-81
2022/10/25 01:54:31;;;;;;;8.93;3.13;;;11.10;99.90;;;;;;4967817;28;20221;-80
2022/10/25 01:57:17;;;;;;;7.77;2.90;;;11.10;99.90;;;;;;4983357;28;20806;-80
2022/10/25 02:00:06;;;;;;;6.73;3.27;;;11.20;99.90;;;;;;4964642;28;20226;-80
2022/10/25 02:02:55;;;;;;;10.97;3.73;;;11.20;99.90;;;;;;4968473;28;20282;-80
2022/10/25 02:05:27;;;;;;;8.60;3.20;;;11.30;99.90;;;;;;4976118;28;20248;-80
2022/10/25 02:08:02;;;;;;;6.37;3.07;;;11.30;99.90;;;;;;4985803;28;20219;-79
2022/10/25 02:10:35;;;;;;;13.57;3.07;;;11.30;99.90;;;;;;4971615;28;20230;-80
2022/10/25 02:13:06;;;;;;;9.90;3.53;;;11.40;99.90;;;;;;4973203;28;20661;-79
2022/10/25 02:15:39;;;;;;;8.37;3.00;;;11.40;99.90;;;;;;4970360;28;20230;-79
2022/10/25 02:18:11;;;;;;;9.87;2.93;;;11.40;99.90;;;;;;4960716;28;20219;-78
2022/10/25 02:20:40;;;;;;;7.90;3.20;;;11.50;99.90;;;;;;4968549;28;20247;-78
2022/10/25 02:23:07;;;;;;;8.90;3.03;;;11.50;99.90;;;;;;4963978;28;20235;-78
2022/10/25 02:25:37;;;;;;;9.40;2.93;;;11.60;99.90;;;;;;4968698;28;20221;-78
2022/10/25 02:28:06;;;;;;;9.57;2.60;;;11.60;99.90;;;;;;4968229;28;20234;-79
2022/10/25 02:30:36;;;;;;;6.60;2.67;;;11.70;99.90;;;;;;4964383;28;20228;-79
2022/10/25 02:33:03;;;;;;;9.77;3.13;;;11.70;99.90;;;;;;4969081;28;20681;-80
2022/10/25 02:35:31;;;;;;;6.10;2.93;;;11.80;99.90;;;;;;4978879;28;20243;-81
2022/10/25 02:37:58;;;;;;;11.97;3.53;;;11.70;99.90;;;;;;4984949;28;20317;-80
2022/10/25 02:40:25;;;;;;;10.47;3.83;;;11.80;99.90;;;;;;4971376;28;20228;-80
2022/10/25 02:42:52;;;;;;;8.77;3.87;;;11.80;99.90;;;;;;4973986;28;20235;-78
2022/10/25 02:45:18;;;;;;;10.80;3.87;;;11.90;99.90;;;;;;4965409;28;20228;-79
2022/10/25 02:47:46;;;;;;;10.07;4.43;;;11.90;99.90;;;;;;4963213;28;20227;-80
2022/10/25 02:50:12;;;;;;;9.53;4.23;;;12.00;99.90;;;;;;4963229;28;20242;-80
2022/10/25 02:52:40;;;;;;;8.63;4.20;;;12.00;99.90;;;;;;4965873;28;20976;-80
2022/10/25 02:55:08;;;;;;;9.97;4.83;;;12.00;99.90;;;;;;4960197;28;20226;-81
2022/10/25 02:57:36;;;;;;;10.47;5.30;;;12.10;99.90;;;;;;4963683;28;20671;-80
2022/10/25 03:00:04;;;;;;;12.20;6.00;;;12.10;99.90;;;;;;4972709;28;20314;-81
2022/10/25 03:02:31;;;;;;;12.77;6.50;;;12.20;99.90;;;;;;4965337;28;20232;-81
2022/10/25 03:04:57;;;;;;;11.87;6.70;;;12.20;99.90;;;;;;4967245;28;20309;-80
2022/10/25 03:07:24;;;;;;;17.87;7.40;;;12.20;99.90;;;;;;4969354;28;20303;-83
2022/10/25 03:09:52;;;;;;;11.63;7.17;;;12.30;99.90;;;;;;4973595;28;20773;-82
2022/10/25 03:12:19;;;;;;;11.97;6.13;;;12.30;99.90;;;;;;4971686;28;20689;-81
2022/10/25 03:14:46;;;;;;;15.27;6.80;;;12.30;99.90;;;;;;4985608;28;20256;-83
2022/10/25 03:17:12;;;;;;;7.80;6.00;;;12.40;99.90;;;;;;4969905;28;20225;-81
2022/10/25 03:19:39;;;;;;;11.40;6.30;;;12.40;99.90;;;;;;4968939;28;20776;-83
2022/10/25 03:22:06;;;;;;;12.57;5.93;;;12.40;99.90;;;;;;4966964;28;20242;-86
2022/10/25 03:24:32;;;;;;;12.60;6.53;;;12.40;99.90;;;;;;4973342;28;20231;-84
2022/10/25 03:27:01;;;;;;;13.20;7.30;;;12.40;99.90;;;;;;4972031;28;20229;-82
2022/10/25 03:29:27;;;;;;;11.87;6.43;;;12.40;99.90;;;;;;4989472;28;20242;-83
2022/10/25 03:31:54;;;;;;;11.80;5.57;;;12.40;99.90;;;;;;4970294;28;20229;-83
2022/10/25 03:34:21;;;;;;;12.07;6.17;;;12.40;99.90;;;;;;4967220;28;20243;-81
2022/10/25 03:36:47;;;;;;;13.57;6.43;;;12.40;99.90;;;;;;4989154;28;20231;-84
2022/10/25 03:39:14;;;;;;;12.43;6.07;;;12.40;99.90;;;;;;4982781;28;20245;-83
2022/10/25 03:41:41;;;;;;;14.97;6.73;;;12.40;99.90;;;;;;4966465;28;20298;-83
2022/10/25 03:44:09;;;;;;;10.17;6.20;;;12.30;99.90;;;;;;4979367;28;20234;-82
2022/10/25 03:46:36;;;;;;;12.97;6.20;;;12.30;99.90;;;;;;4970622;28;20336;-82
2022/10/25 03:49:02;;;;;;;11.00;6.00;;;12.30;99.90;;;;;;4968190;28;20241;-83
2022/10/25 03:51:29;;;;;;;11.97;6.63;;;12.30;99.90;;;;;;4971683;28;20234;-81
2022/10/25 03:53:56;;;;;;;11.67;6.57;;;12.30;99.90;;;;;;4974672;28;20238;-83
2022/10/25 03:56:22;;;;;;;13.70;6.23;;;12.40;99.90;;;;;;4966755;28;20746;-83
2022/10/25 03:58:49;;;;;;;11.17;5.77;;;12.40;99.90;;;;;;4968873;28;20340;-83
2022/10/25 04:01:17;;;;;;;10.10;5.83;;;12.40;99.90;;;;;;4976136;28;20225;-80
2022/10/25 04:03:44;;;;;;;14.93;7.23;;;12.40;99.90;;;;;;4961112;28;20821;-85
2022/10/25 04:06:11;;;;;;;14.97;6.43;;;12.40;99.90;;;;;;4967206;28;20218;-85
2022/10/25 04:08:38;;;;;;;11.47;6.30;;;12.40;99.90;;;;;;4964837;28;20342;-83
2022/10/25 04:11:05;;;;;;;11.27;6.40;;;12.40;99.90;;;;;;4972977;28;20319;-81
2022/10/25 04:13:32;;;;;;;10.70;5.83;;;12.40;99.90;;;;;;4968847;28;20245;-82
2022/10/25 04:15:58;;;;;;;12.83;6.90;;;12.40;99.90;;;;;;4970315;28;20315;-81
2022/10/25 04:18:26;;;;;;;12.30;6.93;;;12.50;99.90;;;;;;4968197;28;20265;-82
2022/10/25 04:20:53;;;;;;;16.97;7.23;;;12.40;99.90;;;;;;4964969;28;20234;-84
2022/10/25 04:23:20;;;;;;;15.50;6.77;;;12.50;99.90;;;;;;4966541;28;20231;-82
2022/10/25 04:25:46;;;;;;;12.83;7.67;;;12.50;99.90;;;;;;4971010;28;20338;-82
2022/10/25 04:28:13;;;;;;;14.17;7.60;;;12.50;99.90;;;;;;4963951;28;20978;-83
2022/10/25 04:30:40;;;;;;;20.80;8.43;;;12.50;99.90;;;;;;4970411;28;20233;-82
2022/10/25 04:33:07;;;;;;;14.53;7.70;;;12.50;99.90;;;;;;4962296;28;20296;-82
2022/10/25 04:35:35;;;;;;;13.97;6.97;;;12.50;99.90;;;;;;4984600;28;20245;-80
2022/10/25 04:38:02;;;;;;;13.43;6.87;;;12.50;99.90;;;;;;4963353;28;20316;-80
2022/10/25 04:40:28;;;;;;;10.07;6.63;;;12.40;99.90;;;;;;4968817;28;20304;-82
2022/10/25 04:42:56;;;;;;;12.63;7.63;;;12.40;99.90;;;;;;4957750;28;20320;-81
2022/10/25 04:45:23;;;;;;;13.23;7.23;;;12.40;99.90;;;;;;4962221;28;20300;-83
2022/10/25 04:47:49;;;;;;;11.00;7.23;;;12.40;99.90;;;;;;4954423;28;20314;-82
2022/10/25 04:50:16;;;;;;;12.80;7.57;;;12.40;99.90;;;;;;4962884;28;20234;-81
2022/10/25 04:52:44;;;;;;;15.37;7.50;;;12.40;99.90;;;;;;4960906;28;20250;-83
2022/10/25 04:55:11;;;;;;;13.83;7.43;;;12.40;99.90;;;;;;4976839;28;20570;-81
2022/10/25 04:57:38;;;;;;;9.83;7.37;;;12.40;99.90;;;;;;4964034;28;20220;-82
2022/10/25 05:00:05;;;;;;;11.83;6.73;;;12.30;99.90;;;;;;4967899;28;20240;-81
2022/10/25 05:02:32;;;;;;;13.53;7.73;;;12.30;99.90;;;;;;4965887;28;20265;-82
2022/10/25 05:04:58;;;;;;;10.07;6.60;;;12.30;99.90;;;;;;4968569;28;20220;-82
2022/10/25 05:07:25;;;;;;;12.30;6.97;;;12.40;99.90;;;;;;4958405;28;20278;-81
2022/10/25 05:09:53;;;;;;;16.23;7.40;;;12.40;99.90;;;;;;4968542;28;20867;-81
2022/10/25 05:12:20;;;;;;;15.00;7.43;;;12.40;99.90;;;;;;4968286;28;20600;-82
2022/10/25 05:14:46;;;;;;;15.00;6.97;;;12.40;99.90;;;;;;4968679;28;20899;-81
2022/10/25 05:17:13;;;;;;;14.27;7.60;;;12.30;99.90;;;;;;4965285;28;20228;-84
2022/10/25 05:19:40;;;;;;;13.00;7.53;;;12.30;99.90;;;;;;4965588;28;20375;-81
2022/10/25 05:22:06;;;;;;;13.43;7.50;;;12.30;99.90;;;;;;4965926;28;21057;-82
2022/10/25 05:24:33;;;;;;;17.73;8.70;;;12.20;99.90;;;;;;4972859;28;20322;-83
2022/10/25 05:27:01;;;;;;;15.53;7.73;;;12.20;99.90;;;;;;4968329;28;20233;-82
2022/10/25 05:29:28;;;;;;;15.57;8.10;;;12.10;99.90;;;;;;4961698;28;20576;-82
2022/10/25 05:31:55;;;;;;;14.57;7.57;;;12.10;99.90;;;;;;4962261;28;20266;-84
2022/10/25 05:34:22;;;;;;;17.63;7.97;;;12.00;99.90;;;;;;4967591;28;20246;-83
2022/10/25 05:36:48;;;;;;;15.10;8.00;;;12.00;99.90;;;;;;4965089;28;20349;-82
2022/10/25 05:39:15;;;;;;;12.03;6.90;;;12.00;99.90;;;;;;4967917;28;20326;-83
2022/10/25 05:41:42;;;;;;;17.93;8.80;;;11.90;99.90;;;;;;4966212;28;20608;-83
2022/10/25 05:44:10;;;;;;;14.20;9.67;;;11.80;99.90;;;;;;4979016;28;20226;-82
2022/10/25 05:46:37;;;;;;;14.00;9.07;;;11.80;99.90;;;;;;4964961;28;20257;-82
2022/10/25 05:49:04;;;;;;;15.10;8.07;;;11.70;99.90;;;;;;4971704;28;20248;-82
2022/10/25 05:51:34;;;;;;;14.30;8.10;;;11.70;99.90;;;;;;4968724;28;20532;-83
2022/10/25 05:54:02;;;;;;;13.43;8.10;;;11.70;99.90;;;;;;4982768;28;20228;-83
2022/10/25 05:56:30;;;;;;;15.00;7.90;;;11.70;99.90;;;;;;4964094;28;20258;-82
2022/10/25 05:58:57;;;;;;;13.70;7.80;;;11.70;99.90;;;;;;4969980;28;20237;-82
2022/10/25 06:01:25;;;;;;;12.93;7.73;;;11.70;99.90;;;;;;4962757;28;20244;-83
2022/10/25 06:03:54;;;;;;;15.57;8.07;;;11.70;99.90;;;;;;4963905;28;20242;-83
2022/10/25 06:06:21;;;;;;;15.70;7.23;;;11.70;99.90;;;;;;4969076;28;20331;-81
2022/10/25 06:08:48;;;;;;;16.53;7.87;;;11.70;99.90;;;;;;4986693;28;20238;-84
2022/10/25 06:11:17;;;;;;;19.70;8.37;;;11.70;99.90;;;;;;4968841;28;20293;-84
2022/10/25 06:13:44;;;;;;;14.57;7.70;;;11.80;99.90;;;;;;4961762;28;20232;-83
2022/10/25 06:16:12;;;;;;;12.30;7.73;;;11.80;99.90;;;;;;4976149;28;20223;-86
2022/10/25 06:18:41;;;;;;;14.83;7.93;;;11.80;99.90;;;;;;4981425;28;20293;-82
2022/10/25 06:21:10;;;;;;;16.43;8.47;;;11.90;99.90;;;;;;4966491;28;20509;-83
2022/10/25 06:23:40;;;;;;;12.97;8.10;;;11.90;99.90;;;;;;4980287;28;20744;-84
2022/10/25 06:26:09;;;;;;;14.73;7.90;;;11.90;99.90;;;;;;4967104;28;20228;-86
2022/10/25 06:28:36;;;;;;;16.17;8.10;;;12.00;99.90;;;;;;4969540;28;20240;-82
2022/10/25 06:31:03;;;;;;;13.23;7.50;;;12.00;99.90;;;;;;4981503;28;20232;-83
2022/10/25 06:33:34;;;;;;;15.67;8.77;;;12.00;99.90;;;;;;4966891;28;20755;-85
2022/10/25 06:36:03;;;;;;;12.80;8.10;;;12.10;99.90;;;;;;4979923;28;20676;-83
2022/10/25 06:38:30;;;;;;;15.57;8.60;;;12.10;99.90;;;;;;4980752;28;20231;-83
2022/10/25 06:41:02;;;;;;;21.07;9.47;;;12.20;99.90;;;;;;4984006;28;20310;-83
2022/10/25 06:43:29;;;;;;;23.30;10.73;;;12.20;99.90;;;;;;4969548;28;20232;-83
2022/10/25 06:45:56;;;;;;;20.03;9.40;;;12.20;99.90;;;;;;4974058;28;20237;-82
2022/10/25 06:48:23;;;;;;;17.20;9.57;;;12.20;99.90;;;;;;4972710;28;20231;-82
2022/10/25 06:51:02;;;;;;;15.57;9.30;;;12.30;99.90;;;;;;4969544;28;20311;-82
2022/10/25 06:53:29;;;;;;;19.87;9.83;;;12.30;99.90;;;;;;4968062;28;20232;-83
2022/10/25 06:55:59;;;;;;;16.00;9.30;;;12.30;99.90;;;;;;4964583;28;20228;-84
2022/10/25 06:58:26;;;;;;;14.00;9.40;;;12.30;99.90;;;;;;4970058;28;20237;-82
2022/10/25 07:00:52;;;;;;;13.83;8.90;;;12.30;99.90;;;;;;4971474;28;20237;-81
2022/10/25 07:03:28;;;;;;;17.73;8.93;;;12.30;99.90;;;;;;4966149;28;20337;-81
2022/10/25 07:05:58;;;;;;;11.90;8.83;;;12.30;99.90;;;;;;4971423;28;20228;-85
2022/10/25 07:08:26;;;;;;;15.30;9.57;;;12.40;99.90;;;;;;4972701;28;20237;-81
2022/10/25 07:10:53;;;;;;;13.97;9.33;;;12.40;99.90;;;;;;4975446;28;21093;-83
2022/10/25 07:13:22;;;;;;;15.47;10.47;;;12.40;99.90;;;;;;4971682;28;20230;-81
2022/10/25 07:15:49;;;;;;;14.50;10.57;;;12.40;99.90;;;;;;4975003;28;20234;-86
2022/10/25 07:18:16;;;;;;;16.33;10.70;;;12.40;99.90;;;;;;4964087;28;20226;-81
2022/10/25 07:20:47;;;;;;;15.83;10.33;;;12.50;99.90;;;;;;4966606;28;20234;-81
2022/10/25 07:23:15;;;;;;;15.87;10.50;;;12.50;99.90;;;;;;4964077;28;20281;-81
2022/10/25 07:25:43;;;;;;;15.77;10.20;;;12.50;99.90;;;;;;4971847;28;20290;-83
2022/10/25 07:28:11;;;;;;;17.03;10.77;;;12.50;99.90;;;;;;4973243;28;20233;-82
2022/10/25 07:30:45;;;;;;;15.80;11.20;;;12.50;99.90;;;;;;4968283;28;20224;-82
2022/10/25 07:33:12;;;;;;;14.87;12.23;;;12.60;99.90;;;;;;4972432;28;20252;-83
2022/10/25 07:35:39;;;;;;;20.87;12.10;;;12.60;99.90;;;;;;4974726;28;20305;-81
2022/10/25 07:38:05;;;;;;;17.10;11.23;;;12.60;99.90;;;;;;4986436;28;20244;-84
2022/10/25 07:40:32;;;;;;;20.67;11.87;;;12.60;99.90;;;;;;4971889;28;20225;-86
2022/10/25 07:43:00;;;;;;;17.77;12.03;;;12.70;99.90;;;;;;4958181;28;20220;-83
2022/10/25 07:45:27;;;;;;;19.53;11.77;;;12.70;99.90;;;;;;4964066;28;20228;-81
2022/10/25 07:47:53;;;;;;;18.30;12.63;;;12.80;99.90;;;;;;4983827;28;20330;-81
2022/10/25 07:50:20;;;;;;;18.77;12.87;;;12.80;99.90;;;;;;4964986;28;20239;-83
2022/10/25 07:52:47;;;;;;;18.73;12.20;;;12.80;99.90;;;;;;4960705;28;20333;-84
2022/10/25 07:55:14;;;;;;;22.37;13.20;;;12.90;99.90;;;;;;4962517;28;20226;-80
2022/10/25 07:57:41;;;;;;;17.33;12.57;;;12.90;99.90;;;;;;4988008;28;20737;-83
2022/10/25 08:00:10;;;;;;;21.10;12.63;;;13.00;99.90;;;;;;4959866;28;20351;-80
2022/10/25 08:02:37;;;;;;;18.37;11.73;;;13.10;99.90;;;;;;4975747;28;20759;-82
2022/10/25 08:05:08;;;;;;;19.70;12.17;;;13.10;99.90;;;;;;4968256;28;20241;-81
2022/10/25 08:07:35;;;;;;;18.70;11.53;;;13.10;99.90;;;;;;4965865;28;20232;-81
2022/10/25 08:10:03;;;;;;;16.43;12.37;;;13.20;99.90;;;;;;4959074;28;20218;-81
2022/10/25 08:12:30;;;;;;;17.23;11.93;;;13.30;99.90;;;;;;4968052;28;20339;-81
2022/10/25 08:14:57;;;;;;;21.63;12.87;;;13.30;99.90;;;;;;4971782;28;20244;-83
2022/10/25 08:17:25;;;;;;;16.23;11.33;;;13.40;99.90;;;;;;4960174;28;20607;-81
2022/10/25 08:19:51;;;;;;;19.30;12.83;;;13.40;99.90;;;;;;4976699;28;20232;-83
2022/10/25 08:22:21;;;;;;;17.20;12.47;;;13.50;99.90;;;;;;4980340;28;20230;-81
2022/10/25 08:24:47;;;;;;;18.30;11.87;;;13.50;99.90;;;;;;4971121;28;20233;-80
2022/10/25 08:27:14;;;;;;;17.70;11.93;;;13.60;99.90;;;;;;4967180;28;20229;-84
2022/10/25 08:29:42;;;;;;;18.33;11.60;;;13.60;99.90;;;;;;4985402;28;20238;-81
2022/10/25 08:32:09;;;;;;;17.43;11.23;;;13.70;99.90;;;;;;4950131;28;20229;-80
2022/10/25 08:34:37;;;;;;;16.03;11.10;;;13.80;99.90;;;;;;4960272;28;20232;-80
2022/10/25 08:37:03;;;;;;;16.80;11.37;;;13.80;99.90;;;;;;4959438;28;20226;-80
2022/10/25 08:39:30;;;;;;;15.80;11.77;;;13.90;99.90;;;;;;4965098;28;20234;-81
2022/10/25 08:41:59;;;;;;;14.80;10.90;;;13.90;99.90;;;;;;4982739;28;20238;-81
2022/10/25 08:44:43;;;;;;;19.37;11.27;;;13.90;99.90;;;;;;4969088;28;20240;-81
2022/10/25 08:47:16;;;;;;;14.80;10.50;;;13.90;99.90;;;;;;4960430;28;20314;-80
2022/10/25 08:49:53;;;;;;;20.30;11.40;;;13.90;99.90;;;;;;4970377;28;20771;-81
2022/10/25 08:52:26;;;;;;;19.60;10.97;;;13.90;99.90;;;;;;4960750;28;20256;-79
2022/10/25 08:54:57;;;;;;;17.27;10.77;;;14.00;99.90;;;;;;4964779;28;20228;-80
2022/10/25 08:57:27;;;;;;;17.87;10.77;;;14.00;99.90;;;;;;4968619;28;20232;-82
2022/10/25 08:59:56;;;;;;;16.27;10.73;;;14.00;99.90;;;;;;4961526;28;20740;-80
2022/10/25 09:02:31;;;;;;;15.90;10.87;;;14.00;99.90;;;;;;4973847;28;20225;-80
2022/10/25 09:05:00;;;;;;;15.30;9.80;;;14.00;99.90;;;;;;4960052;28;20245;-82
2022/10/25 09:07:45;;;;;;;14.30;10.20;;;14.00;99.90;;;;;;4962797;28;20769;-80
2022/10/25 09:10:22;;;;;;;15.93;10.37;;;14.00;99.90;;;;;;4968293;28;20235;-79
2022/10/25 09:12:57;;;;;;;15.10;9.03;;;14.10;99.90;;;;;;4976996;28;20224;-79
2022/10/25 09:15:35;;;;;;;16.70;8.57;;;14.10;99.90;;;;;;4961218;28;20233;-80
2022/10/25 09:18:10;;;;;;;15.47;8.63;;;14.10;99.90;;;;;;4960309;28;20259;-81
2022/10/25 09:20:46;;;;;;;16.03;8.37;;;14.10;99.90;;;;;;4960476;28;20257;-81
2022/10/25 09:23:23;;;;;;;15.57;7.40;;;14.10;99.90;;;;;;4961256;28;20308;-81
2022/10/25 09:26:00;;;;;;;12.20;7.23;;;14.30;99.90;;;;;;4972662;28;20225;-79
2022/10/25 09:28:42;;;;;;;13.83;6.90;;;14.30;99.90;;;;;;4954622;28;20242;-80
2022/10/25 09:31:12;;;;;;;10.70;6.80;;;14.40;99.90;;;;;;4958740;28;20250;-80
2022/10/25 09:33:42;;;;;;;10.37;6.47;;;14.50;99.90;;;;;;4962945;28;20236;-81
2022/10/25 09:36:11;;;;;;;12.77;6.00;;;14.50;99.90;;;;;;4965924;28;20227;-82
2022/10/25 09:38:41;;;;;;;12.67;6.60;;;14.50;99.90;;;;;;4956900;28;20296;-83
2022/10/25 09:41:15;;;;;;;8.57;5.53;;;14.50;99.90;;;;;;4960710;28;20226;-82
2022/10/25 09:43:48;;;;;;;11.90;5.97;;;14.60;99.90;;;;;;4964726;28;20228;-79
2022/10/25 09:46:20;;;;;;;11.63;6.53;;;14.80;99.90;;;;;;4966437;28;20308;-82
2022/10/25 09:48:54;;;;;;;8.90;5.40;;;15.00;99.90;;;;;;4970623;28;20792;-80
2022/10/25 09:51:31;;;;;;;8.43;5.70;;;15.10;99.90;;;;;;4971712;28;20751;-80
2022/10/25 09:54:03;;;;;;;8.47;5.17;;;15.20;99.90;;;;;;4965017;28;20306;-79
2022/10/25 09:56:30;;;;;;;10.90;5.13;;;15.30;99.90;;;;;;4986685;28;20223;-80
2022/10/25 09:59:00;;;;;;;11.83;5.77;;;15.30;99.90;;;;;;4968580;28;20259;-80
2022/10/25 10:01:29;;;;;;;12.33;5.23;;;15.30;99.90;;;;;;4960734;28;20694;-80
2022/10/25 10:04:04;;;;;;;10.90;5.10;;;15.40;99.90;;;;;;4975399;28;20305;-80
2022/10/25 10:06:37;;;;;;;10.17;5.47;;;15.40;99.90;;;;;;4963389;28;20985;-80
2022/10/25 10:09:06;;;;;;;9.37;4.80;;;15.40;99.90;;;;;;4965012;28;20328;-80
2022/10/25 10:11:35;;;;;;;10.13;5.03;;;15.30;99.90;;;;;;4974178;28;20815;-79
2022/10/25 10:14:06;;;;;;;9.23;4.67;;;15.30;99.90;;;;;;4967399;28;20290;-80
2022/10/25 10:16:40;;;;;;;9.53;4.27;;;15.40;99.90;;;;;;4959662;28;20595;-80
2022/10/25 10:19:17;;;;;;;8.37;4.23;;;15.50;99.90;;;;;;4967998;28;20238;-80
2022/10/25 10:21:47;;;;;;;9.13;4.07;;;15.60;99.90;;;;;;4965786;28;20222;-80
2022/10/25 10:24:18;;;;;;;11.97;4.03;;;15.80;99.90;;;;;;4961259;28;20717;-80
2022/10/25 10:26:47;;;;;;;9.60;4.70;;;15.90;99.90;;;;;;4966680;28;20237;-81
2022/10/25 10:29:20;;;;;;;11.20;4.77;;;16.10;99.90;;;;;;4964693;28;20795;-80
2022/10/25 10:31:49;;;;;;;7.77;4.07;;;16.20;99.90;;;;;;4961829;28;20621;-84
2022/10/25 10:34:28;;;;;;;9.10;3.70;;;16.30;99.90;;;;;;4983141;28;20690;-80
2022/10/25 10:37:12;;;;;;;13.23;4.03;;;16.40;99.90;;;;;;4970947;28;20229;-80
2022/10/25 10:39:48;;;;;;;9.33;3.67;;;16.50;99.90;;;;;;4962860;28;20246;-82
2022/10/25 10:42:20;;;;;;;8.17;3.57;;;16.70;99.90;;;;;;4965962;28;20241;-80
2022/10/25 10:45:15;;;;;;;8.40;3.50;;;16.80;99.90;;;;;;4954925;28;20908;-80
2022/10/25 10:47:44;;;;;;;8.30;3.57;;;17.00;99.90;;;;;;4956799;28;20240;-85
2022/10/25 10:50:13;;;;;;;9.10;3.57;;;17.10;99.90;;;;;;4961553;28;20250;-79
2022/10/25 10:52:44;;;;;;;6.50;3.90;;;17.10;99.90;;;;;;4965388;28;20233;-79
2022/10/25 10:55:18;;;;;;;8.47;3.80;;;17.00;99.90;;;;;;4966407;28;20226;-80
2022/10/25 10:57:45;;;;;;;11.77;3.90;;;17.00;99.90;;;;;;4963446;28;20729;-82
2022/10/25 11:00:21;;;;;;;10.33;3.83;;;16.90;99.90;;;;;;4966246;28;20237;-79
2022/10/25 11:02:48;;;;;;;7.33;3.27;;;16.80;99.90;;;;;;4965786;28;20233;-84
2022/10/25 11:05:21;;;;;;;7.83;3.50;;;16.80;99.90;;;;;;4964935;28;20768;-81
2022/10/25 11:07:55;;;;;;;7.97;3.33;;;16.60;99.90;;;;;;4967815;28;20268;-81
2022/10/25 11:10:28;;;;;;;8.70;3.20;;;16.60;99.90;;;;;;4957745;28;20368;-80
2022/10/25 11:13:07;;;;;;;8.27;3.27;;;16.50;99.90;;;;;;4967657;28;20394;-80
2022/10/25 11:15:48;;;;;;;8.23;3.20;;;16.60;99.90;;;;;;4972243;28;20229;-80
2022/10/25 11:18:16;;;;;;;7.53;3.40;;;16.60;99.90;;;;;;4976853;28;20229;-80
2022/10/25 11:20:49;;;;;;;9.23;3.30;;;16.80;99.90;;;;;;4964905;28;20257;-83
2022/10/25 11:23:22;;;;;;;5.63;2.77;;;16.90;99.90;;;;;;4966363;28;20221;-80
2022/10/25 11:25:56;;;;;;;7.20;3.60;;;17.10;99.90;;;;;;4964557;28;20241;-83
2022/10/25 11:28:37;;;;;;;8.50;3.23;;;17.20;99.90;;;;;;4963780;28;21283;-81
2022/10/25 11:31:14;;;;;;;7.43;2.57;;;17.30;99.90;;;;;;4962218;28;20233;-79
2022/10/25 11:33:50;;;;;;;7.90;2.83;;;17.30;99.90;;;;;;4960581;28;20224;-80
2022/10/25 11:36:56;;;;;;;7.03;3.17;;;17.40;99.90;;;;;;4961148;28;20822;-81
2022/10/25 11:39:36;;;;;;;6.33;2.80;;;17.60;99.90;;;;;;4951919;28;20233;-80
2022/10/25 11:42:15;;;;;;;5.33;2.60;;;17.60;99.90;;;;;;4962302;28;20249;-81
2022/10/25 11:44:57;;;;;;;6.50;2.33;;;17.80;99.90;;;;;;4972749;28;20240;-79
2022/10/25 11:47:40;;;;;;;8.07;2.63;;;17.90;99.90;;;;;;4955051;28;20231;-80
2022/10/25 11:50:19;;;;;;;7.50;2.47;;;18.00;99.90;;;;;;4965792;28;20338;-81
2022/10/25 11:53:01;;;;;;;5.87;2.20;;;18.10;99.90;;;;;;4969728;28;20266;-80
2022/10/25 11:55:37;;;;;;;4.50;2.33;;;18.20;99.90;;;;;;4962481;28;20238;-82
2022/10/25 11:58:18;;;;;;;7.00;2.40;;;18.30;99.90;;;;;;4961781;28;20229;-80
2022/10/25 12:00:54;;;;;;;8.23;2.60;;;18.30;99.90;;;;;;4967539;28;20225;-80
2022/10/25 12:03:34;;;;;;;8.17;2.50;;;18.30;99.90;;;;;;4967946;28;20941;-80
2022/10/25 12:06:10;;;;;;;5.13;2.15;;;18.30;99.90;;;;;;4963251;28;20712;-80
2022/10/25 12:08:46;;;;;;;6.87;2.10;;;18.20;99.90;;;;;;4955768;28;20284;-82
2022/10/25 12:11:19;;;;;;;7.60;2.80;;;18.20;99.90;;;;;;4963323;28;20229;-82
2022/10/25 12:13:50;;;;;;;6.30;2.40;;;18.10;99.90;;;;;;4968920;28;20600;-83
2022/10/25 12:16:19;;;;;;;7.10;2.40;;;18.10;99.90;;;;;;4958916;28;20238;-82
2022/10/25 12:18:49;;;;;;;6.27;2.23;;;18.10;99.90;;;;;;4958458;28;20706;-83
2022/10/25 12:21:20;;;;;;;9.07;2.27;;;18.10;99.90;;;;;;4976562;28;20316;-80
2022/10/25 12:23:50;;;;;;;7.07;2.13;;;18.10;99.90;;;;;;4963494;28;20218;-82
2022/10/25 12:26:25;;;;;;;6.40;2.50;;;18.10;99.90;;;;;;4963251;28;20234;-80
2022/10/25 12:28:54;;;;;;;8.00;2.40;;;18.20;99.90;;;;;;4966537;28;20245;-80
2022/10/25 12:31:25;;;;;;;7.37;2.17;;;18.30;99.90;;;;;;4961325;28;20618;-82
2022/10/25 12:33:57;;;;;;;5.83;2.20;;;18.40;99.90;;;;;;4963624;28;20329;-82
2022/10/25 12:36:30;;;;;;;6.27;2.10;;;18.50;99.90;;;;;;4965465;28;20329;-80
2022/10/25 12:38:59;;;;;;;5.53;2.30;;;18.60;99.80;;;;;;4966463;28;20798;-80
2022/10/25 12:41:30;;;;;;;4.53;2.10;;;18.60;99.60;;;;;;4976545;28;20222;-80
2022/10/25 12:44:15;;;;;;;6.17;2.10;;;18.60;99.50;;;;;;4968033;28;20305;-84
2022/10/25 12:47:18;;;;;;;6.63;2.30;;;18.60;99.40;;;;;;4961291;28;20288;-84
2022/10/25 12:50:19;;;;;;;7.20;2.00;;;18.60;99.60;;;;;;4969290;28;20238;-82
2022/10/25 12:53:08;;;;;;;4.27;1.97;;;18.70;99.60;;;;;;4964998;28;20758;-85
2022/10/25 12:55:49;;;;;;;5.00;1.93;;;18.70;99.80;;;;;;4965871;28;20226;-84